createdAt,value
2023-04-11T00:00:24.996Z,56.75
2023-04-11T00:01:24.999Z,57.58
2023-04-11T00:03:35.545Z,57.37
2023-04-11T00:04:35.388Z,57.37
2023-04-11T00:05:35.304Z,55.95
2023-04-11T00:06:35.354Z,56.05
2023-04-11T00:07:35.298Z,58.02
2023-04-11T00:08:35.298Z,57.60
2023-04-11T00:09:35.278Z,57.40
2023-04-11T00:10:35.247Z,56.57
2023-04-11T00:11:35.240Z,57.29
2023-04-11T00:12:35.251Z,55.95
2023-04-11T00:13:35.216Z,56.98
2023-04-11T00:14:35.205Z,56.57
2023-04-11T00:15:35.227Z,55.33
2023-04-11T00:16:35.212Z,54.06
2023-04-11T00:17:35.223Z,53.34
2023-04-11T00:18:35.168Z,52.62
2023-04-11T00:19:35.151Z,51.89
2023-04-11T00:20:35.140Z,51.04
2023-04-11T00:21:35.130Z,52.10
2023-04-11T00:22:35.120Z,52.62
2023-04-11T00:23:35.129Z,52.51
2023-04-11T00:24:35.109Z,53.23
2023-04-11T00:25:35.099Z,53.75
2023-04-11T00:26:35.089Z,53.96
2023-04-11T00:27:35.077Z,53.94
2023-04-11T00:28:35.055Z,54.55
2023-04-11T00:29:35.069Z,53.83
2023-04-11T00:30:35.031Z,53.83
2023-04-11T00:31:35.085Z,53.94
2023-04-11T00:32:35.027Z,53.31
2023-04-11T00:33:34.997Z,54.66
2023-04-11T00:34:34.988Z,54.86
2023-04-11T00:35:35.079Z,54.89
2023-04-11T00:36:35.033Z,56.44
2023-04-11T00:37:34.957Z,57.17
2023-04-11T00:38:34.943Z,58.92
2023-04-11T00:39:34.933Z,58.72
2023-04-11T00:40:34.924Z,57.58
2023-04-11T00:41:34.935Z,55.82
2023-04-11T00:42:34.898Z,54.97
2023-04-11T00:43:34.890Z,56.03
2023-04-11T00:44:34.888Z,53.94
2023-04-11T00:45:34.940Z,54.04
2023-04-11T00:46:34.864Z,53.94
2023-04-11T00:47:34.924Z,53.42
2023-04-11T00:48:34.848Z,53.86
2023-04-11T00:49:34.829Z,53.94
2023-04-11T00:50:34.813Z,53.55
2023-04-11T00:51:34.802Z,55.72
2023-04-11T00:52:34.791Z,56.52
2023-04-11T00:53:34.818Z,56.85
2023-04-11T00:54:34.782Z,57.48
2023-04-11T00:55:34.757Z,58.20
2023-04-11T00:56:34.749Z,58.20
2023-04-11T00:57:34.738Z,59.44
2023-04-11T00:58:34.727Z,60.06
2023-04-11T00:59:34.736Z,60.06
2023-04-11T01:00:34.712Z,59.34
2023-04-11T01:01:34.727Z,57.48
2023-04-11T01:02:34.766Z,56.65
2023-04-11T01:03:34.876Z,57.37
2023-04-11T01:04:34.661Z,58.09
2023-04-11T01:05:34.696Z,57.89
2023-04-11T01:06:34.673Z,57.79
2023-04-11T01:07:34.633Z,59.23
2023-04-11T01:08:34.621Z,58.72
2023-04-11T01:09:34.636Z,58.40
2023-04-11T01:10:34.613Z,58.40
2023-04-11T01:11:34.635Z,59.16
2023-04-11T01:12:34.593Z,59.57
2023-04-11T01:13:34.580Z,60.40
2023-04-11T01:14:34.575Z,60.50
2023-04-11T01:15:34.550Z,58.44
2023-04-11T01:16:34.568Z,56.96
2023-04-11T01:17:34.658Z,57.27
2023-04-11T01:18:34.516Z,56.16
2023-04-11T01:19:34.532Z,56.16
2023-04-11T01:20:34.506Z,56.44
2023-04-11T01:21:34.489Z,56.77
2023-04-11T01:22:34.475Z,56.26
2023-04-11T01:23:34.512Z,56.05
2023-04-11T01:24:34.450Z,57.60
2023-04-11T01:25:34.441Z,58.33
2023-04-11T01:26:34.434Z,57.71
2023-04-11T01:27:34.427Z,56.68
2023-04-11T01:28:34.412Z,56.57
2023-04-11T01:29:34.431Z,55.22
2023-04-11T01:30:34.405Z,55.43
2023-04-11T01:31:34.386Z,55.64
2023-04-11T01:32:34.393Z,58.44
2023-04-11T01:33:34.360Z,55.64
2023-04-11T01:34:34.356Z,54.58
2023-04-11T01:35:34.382Z,54.91
2023-04-11T01:36:34.327Z,53.88
2023-04-11T01:37:34.314Z,55.54
2023-04-11T01:38:34.302Z,56.68
2023-04-11T01:39:34.302Z,56.47
2023-04-11T01:40:34.279Z,55.93
2023-04-11T01:41:34.295Z,55.85
2023-04-11T01:42:34.254Z,56.13
2023-04-11T01:43:34.246Z,55.85
2023-04-11T01:44:34.238Z,55.64
2023-04-11T01:45:34.232Z,57.37
2023-04-11T01:46:34.210Z,57.79
2023-04-11T01:47:34.290Z,58.95
2023-04-11T01:48:34.460Z,56.34
2023-04-11T01:49:34.190Z,57.17
2023-04-11T01:50:34.173Z,56.85
2023-04-11T01:51:34.186Z,56.34
2023-04-11T01:52:34.145Z,55.82
2023-04-11T01:53:34.162Z,55.10
2023-04-11T01:54:34.153Z,55.82
2023-04-11T01:55:34.111Z,57.79
2023-04-11T01:56:34.115Z,57.37
2023-04-11T01:57:34.091Z,59.03
2023-04-11T01:58:34.077Z,57.99
2023-04-11T01:59:34.086Z,57.68
2023-04-11T02:00:34.079Z,56.75
2023-04-11T02:01:34.147Z,56.85
2023-04-11T02:02:34.116Z,55.90
2023-04-11T02:03:34.275Z,56.62
2023-04-11T02:04:34.014Z,55.51
2023-04-11T02:05:34.037Z,56.31
2023-04-11T02:06:34.003Z,56.44
2023-04-11T02:07:34.005Z,56.24
2023-04-11T02:08:33.976Z,55.69
2023-04-11T02:09:33.959Z,55.38
2023-04-11T02:10:33.963Z,56.10
2023-04-11T02:11:33.969Z,56.34
2023-04-11T02:12:33.927Z,56.31
2023-04-11T02:13:33.918Z,55.51
2023-04-11T02:14:33.906Z,53.83
2023-04-11T02:15:33.940Z,54.04
2023-04-11T02:16:33.892Z,53.83
2023-04-11T02:17:33.961Z,53.75
2023-04-11T02:18:33.875Z,54.68
2023-04-11T02:19:36.374Z,55.51
2023-04-11T02:20:33.842Z,54.79
2023-04-11T02:21:33.833Z,54.99
2023-04-11T02:22:33.841Z,55.10
2023-04-11T02:23:33.842Z,57.99
2023-04-11T02:24:33.801Z,57.81
2023-04-11T02:25:33.810Z,57.42
2023-04-11T02:26:33.787Z,56.16
2023-04-11T02:27:33.766Z,55.98
2023-04-11T02:28:33.761Z,55.56
2023-04-11T02:29:33.772Z,55.98
2023-04-11T02:30:33.752Z,58.36
2023-04-11T02:31:33.796Z,57.73
2023-04-11T02:32:33.742Z,56.81
2023-04-11T02:33:33.702Z,56.29
2023-04-11T02:34:33.696Z,55.69
2023-04-11T02:35:33.710Z,55.15
2023-04-11T02:36:33.680Z,55.38
2023-04-11T02:37:33.661Z,55.90
2023-04-11T02:38:33.647Z,56.83
2023-04-11T02:39:33.663Z,57.97
2023-04-11T02:40:33.625Z,57.48
2023-04-11T02:41:33.633Z,56.24
2023-04-11T02:42:33.664Z,56.13
2023-04-11T02:43:33.591Z,56.24
2023-04-11T02:44:33.590Z,56.24
2023-04-11T02:45:33.583Z,56.73
2023-04-11T02:46:33.586Z,56.54
2023-04-11T02:47:33.645Z,56.65
2023-04-11T02:48:33.550Z,56.24
2023-04-11T02:49:33.534Z,55.82
2023-04-11T02:50:33.524Z,56.24
2023-04-11T02:51:33.508Z,55.72
2023-04-11T02:52:33.493Z,56.83
2023-04-11T02:53:33.510Z,57.79
2023-04-11T02:54:33.492Z,57.58
2023-04-11T02:55:33.489Z,57.58
2023-04-11T02:56:33.451Z,57.37
2023-04-11T02:57:33.440Z,58.07
2023-04-11T02:58:33.440Z,58.62
2023-04-11T02:59:33.439Z,57.79
2023-04-11T03:00:33.407Z,58.80
2023-04-11T03:01:33.451Z,58.07
2023-04-11T03:02:33.540Z,57.97
2023-04-11T03:03:33.459Z,56.08
2023-04-11T03:04:33.429Z,56.41
2023-04-11T03:05:33.370Z,56.29
2023-04-11T03:06:33.357Z,56.49
2023-04-11T03:07:33.333Z,56.70
2023-04-11T03:08:33.320Z,55.98
2023-04-11T03:09:33.322Z,55.87
2023-04-11T03:10:33.312Z,55.46
2023-04-11T03:11:33.327Z,56.18
2023-04-11T03:12:33.278Z,56.08
2023-04-11T03:13:33.266Z,55.35
2023-04-11T03:14:33.257Z,55.64
2023-04-11T03:15:33.248Z,55.85
2023-04-11T03:16:33.387Z,56.88
2023-04-11T03:17:33.310Z,55.85
2023-04-11T03:18:33.227Z,55.87
2023-04-11T03:19:33.202Z,55.74
2023-04-11T03:20:33.205Z,55.95
2023-04-11T03:21:33.183Z,56.57
2023-04-11T03:22:33.186Z,57.92
2023-04-11T03:23:33.174Z,55.95
2023-04-11T03:24:33.156Z,56.68
2023-04-11T03:25:33.143Z,58.02
2023-04-11T03:26:33.128Z,57.29
2023-04-11T03:27:33.137Z,57.60
2023-04-11T03:28:33.120Z,57.92
2023-04-11T03:29:33.110Z,59.26
2023-04-11T03:30:33.088Z,61.20
2023-04-11T03:31:33.166Z,61.12
2023-04-11T03:32:33.110Z,59.36
2023-04-11T03:33:33.055Z,59.16
2023-04-11T03:34:33.064Z,58.61
2023-04-11T03:35:33.053Z,55.95
2023-04-11T03:36:33.024Z,56.75
2023-04-11T03:37:33.011Z,57.37
2023-04-11T03:38:33.019Z,57.37
2023-04-11T03:39:32.992Z,56.96
2023-04-11T03:40:32.978Z,57.17
2023-04-11T03:41:33.003Z,55.93
2023-04-11T03:42:32.969Z,57.58
2023-04-11T03:43:32.981Z,57.55
2023-04-11T03:44:32.935Z,55.41
2023-04-11T03:45:32.926Z,55.41
2023-04-11T03:46:32.931Z,55.82
2023-04-11T03:47:32.964Z,53.83
2023-04-11T03:48:32.919Z,53.83
2023-04-11T03:49:32.882Z,54.25
2023-04-11T03:50:32.869Z,56.00
2023-04-11T03:51:32.857Z,57.55
2023-04-11T03:52:32.856Z,55.80
2023-04-11T03:53:32.876Z,56.13
2023-04-11T03:54:32.850Z,56.24
2023-04-11T03:55:32.816Z,55.10
2023-04-11T03:56:32.803Z,56.75
2023-04-11T03:57:32.792Z,58.40
2023-04-11T03:58:32.783Z,57.79
2023-04-11T03:59:32.850Z,58.09
2023-04-11T04:00:32.768Z,57.06
2023-04-11T04:01:32.785Z,56.98
2023-04-11T04:02:32.919Z,57.68
2023-04-11T04:03:33.055Z,57.58
2023-04-11T04:04:32.893Z,58.02
2023-04-11T04:05:32.728Z,59.26
2023-04-11T04:06:32.699Z,58.74
2023-04-11T04:07:32.684Z,59.67
2023-04-11T04:08:32.671Z,59.36
2023-04-11T04:09:32.660Z,59.99
2023-04-11T04:10:32.648Z,59.36
2023-04-11T04:11:32.664Z,59.78
2023-04-11T04:12:32.628Z,60.81
2023-04-11T04:13:32.634Z,61.22
2023-04-11T04:14:32.610Z,58.74
2023-04-11T04:15:32.615Z,58.54
2023-04-11T04:16:32.616Z,58.02
2023-04-11T04:17:32.648Z,57.60
2023-04-11T04:18:32.591Z,56.75
2023-04-11T04:19:32.601Z,56.75
2023-04-11T04:20:32.551Z,56.05
2023-04-11T04:21:32.622Z,56.05
2023-04-11T04:22:32.519Z,55.41
2023-04-11T04:23:32.583Z,56.96
2023-04-11T04:24:32.517Z,57.37
2023-04-11T04:25:32.492Z,55.93
2023-04-11T04:26:32.502Z,56.44
2023-04-11T04:27:32.493Z,58.61
2023-04-11T04:28:32.468Z,59.85
2023-04-11T04:29:32.458Z,60.30
2023-04-11T04:30:32.478Z,59.34
2023-04-11T04:31:32.542Z,57.60
2023-04-11T04:32:32.436Z,57.79
2023-04-11T04:33:32.400Z,56.24
2023-04-11T04:34:32.394Z,55.41
2023-04-11T04:35:32.453Z,54.68
2023-04-11T04:36:32.374Z,54.27
2023-04-11T04:37:32.361Z,54.89
2023-04-11T04:38:32.353Z,55.72
2023-04-11T04:39:32.337Z,56.03
2023-04-11T04:40:32.326Z,55.93
2023-04-11T04:41:32.324Z,56.24
2023-04-11T04:42:32.312Z,57.89
2023-04-11T04:43:32.444Z,57.06
2023-04-11T04:44:32.295Z,58.09
2023-04-11T04:45:32.299Z,60.37
2023-04-11T04:46:32.258Z,59.34
2023-04-11T04:47:32.320Z,59.64
2023-04-11T04:48:32.250Z,61.71
2023-04-11T04:49:32.226Z,62.05
2023-04-11T04:50:32.214Z,61.22
2023-04-11T04:51:32.202Z,61.54
2023-04-11T04:52:32.192Z,60.30
2023-04-11T04:53:32.199Z,60.40
2023-04-11T04:54:32.206Z,59.13
2023-04-11T04:55:32.162Z,57.71
2023-04-11T04:56:32.156Z,57.92
2023-04-11T04:57:32.257Z,57.81
2023-04-11T04:58:32.127Z,59.23
2023-04-11T04:59:32.145Z,60.09
2023-04-11T05:00:32.111Z,60.40
2023-04-11T05:01:32.150Z,57.58
2023-04-11T05:02:32.189Z,58.51
2023-04-11T05:03:32.186Z,58.30
2023-04-11T05:04:32.123Z,59.34
2023-04-11T05:05:32.073Z,60.60
2023-04-11T05:06:32.070Z,60.68
2023-04-11T05:07:32.024Z,60.09
2023-04-11T05:08:32.034Z,58.30
2023-04-11T05:09:32.020Z,59.44
2023-04-11T05:10:32.016Z,59.23
2023-04-11T05:11:32.003Z,59.34
2023-04-11T05:12:31.973Z,59.85
2023-04-11T05:13:31.965Z,59.03
2023-04-11T05:14:31.961Z,58.92
2023-04-11T05:15:31.940Z,57.89
2023-04-11T05:16:31.971Z,57.37
2023-04-11T05:17:31.962Z,59.34
2023-04-11T05:18:31.924Z,59.95
2023-04-11T05:19:31.917Z,61.92
2023-04-11T05:20:31.899Z,61.40
2023-04-11T05:21:31.877Z,61.20
2023-04-11T05:22:31.871Z,59.44
2023-04-11T05:23:31.887Z,57.58
2023-04-11T05:24:31.845Z,59.03
2023-04-11T05:25:31.836Z,60.89
2023-04-11T05:26:31.839Z,59.13
2023-04-11T05:27:31.815Z,57.97
2023-04-11T05:28:31.802Z,59.55
2023-04-11T05:29:31.824Z,59.75
2023-04-11T05:30:31.806Z,59.88
2023-04-11T05:31:31.770Z,60.50
2023-04-11T05:32:31.850Z,60.58
2023-04-11T05:33:31.746Z,59.34
2023-04-11T05:34:31.738Z,59.05
2023-04-11T05:35:31.753Z,59.23
2023-04-11T05:36:31.721Z,59.95
2023-04-11T05:37:31.715Z,59.75
2023-04-11T05:38:31.720Z,59.55
2023-04-11T05:39:31.689Z,59.64
2023-04-11T05:40:31.673Z,59.55
2023-04-11T05:41:31.686Z,60.06
2023-04-11T05:42:31.655Z,60.75
2023-04-11T05:43:31.643Z,60.47
2023-04-11T05:44:31.651Z,60.27
2023-04-11T05:45:31.622Z,62.30
2023-04-11T05:46:31.742Z,62.65
2023-04-11T05:47:31.684Z,61.99
2023-04-11T05:48:31.592Z,61.27
2023-04-11T05:49:31.576Z,61.99
2023-04-11T05:50:31.582Z,61.27
2023-04-11T05:51:31.578Z,60.75
2023-04-11T05:52:31.547Z,60.96
2023-04-11T05:53:31.568Z,60.86
2023-04-11T05:54:31.528Z,60.44
2023-04-11T05:55:31.527Z,60.63
2023-04-11T05:56:31.511Z,61.45
2023-04-11T05:57:31.498Z,62.10
2023-04-11T05:58:31.485Z,61.35
2023-04-11T05:59:31.489Z,60.42
2023-04-11T06:00:31.502Z,56.10
2023-04-11T06:01:31.445Z,57.94
2023-04-11T06:02:31.659Z,59.18
2023-04-11T06:03:31.485Z,60.03
2023-04-11T06:04:31.604Z,61.17
2023-04-11T06:05:31.586Z,60.24
2023-04-11T06:06:31.403Z,60.55
2023-04-11T06:07:31.510Z,60.75
2023-04-11T06:08:31.372Z,60.75
2023-04-11T06:09:33.485Z,60.55
2023-04-11T06:10:31.348Z,60.75
2023-04-11T06:11:31.356Z,60.75
2023-04-11T06:12:31.336Z,61.17
2023-04-11T06:13:31.317Z,61.45
2023-04-11T06:14:31.307Z,60.96
2023-04-11T06:15:31.293Z,59.49
2023-04-11T06:16:31.335Z,57.42
2023-04-11T06:17:31.349Z,59.49
2023-04-11T06:18:31.261Z,58.45
2023-04-11T06:19:31.251Z,59.49
2023-04-11T06:20:31.256Z,61.24
2023-04-11T06:21:31.228Z,61.76
2023-04-11T06:22:31.221Z,61.94
2023-04-11T06:23:31.243Z,61.01
2023-04-11T06:24:31.196Z,63.51
2023-04-11T06:25:31.193Z,63.93
2023-04-11T06:26:31.173Z,63.51
2023-04-11T06:27:31.164Z,62.48
2023-04-11T06:28:31.154Z,62.17
2023-04-11T06:29:31.180Z,63.42
2023-04-11T06:30:31.137Z,62.48
2023-04-11T06:31:31.186Z,60.31
2023-04-11T06:32:31.151Z,60.63
2023-04-11T06:33:31.111Z,62.27
2023-04-11T06:34:31.096Z,63.93
2023-04-11T06:35:31.140Z,64.86
2023-04-11T06:36:31.071Z,63.31
2023-04-11T06:37:31.060Z,62.79
2023-04-11T06:38:31.046Z,62.17
2023-04-11T06:39:31.181Z,62.27
2023-04-11T06:40:31.044Z,63.62
2023-04-11T06:41:31.068Z,62.87
2023-04-11T06:42:31.008Z,63.39
2023-04-11T06:43:30.997Z,64.31
2023-04-11T06:44:31.013Z,63.28
2023-04-11T06:45:31.019Z,63.21
2023-04-11T06:46:31.024Z,62.69
2023-04-11T06:47:31.007Z,62.04
2023-04-11T06:48:30.946Z,61.35
2023-04-11T06:49:30.932Z,61.87
2023-04-11T06:50:30.920Z,62.15
2023-04-11T06:51:30.912Z,61.73
2023-04-11T06:52:30.899Z,59.77
2023-04-11T06:53:30.918Z,59.74
2023-04-11T06:54:30.885Z,57.68
2023-04-11T06:55:30.886Z,57.37
2023-04-11T06:56:30.854Z,56.85
2023-04-11T06:57:30.847Z,56.34
2023-04-11T06:58:30.833Z,58.37
2023-04-11T06:59:30.879Z,59.09
2023-04-11T07:00:30.826Z,60.23
2023-04-11T07:01:30.974Z,61.98
2023-04-11T07:02:30.979Z,62.29
2023-04-11T07:03:30.946Z,62.81
2023-04-11T07:04:30.960Z,63.53
2023-04-11T07:05:30.781Z,66.73
2023-04-11T07:06:30.775Z,67.86
2023-04-11T07:07:30.750Z,65.03
2023-04-11T07:08:30.724Z,66.35
2023-04-11T07:09:30.715Z,66.89
2023-04-11T07:10:30.703Z,65.34
2023-04-11T07:11:30.720Z,65.34
2023-04-11T07:12:30.680Z,66.69
2023-04-11T07:13:30.686Z,66.48
2023-04-11T07:14:30.674Z,65.31
2023-04-11T07:15:30.652Z,66.58
2023-04-11T07:16:30.690Z,65.66
2023-04-11T07:17:30.669Z,64.93
2023-04-11T07:18:30.620Z,65.24
2023-04-11T07:19:30.628Z,63.79
2023-04-11T07:20:30.594Z,63.49
2023-04-11T07:21:30.585Z,63.18
2023-04-11T07:22:30.574Z,63.90
2023-04-11T07:23:30.600Z,64.62
2023-04-11T07:24:30.563Z,64.42
2023-04-11T07:25:30.747Z,65.42
2023-04-11T07:26:30.534Z,65.21
2023-04-11T07:27:30.542Z,63.35
2023-04-11T07:28:30.511Z,63.56
2023-04-11T07:29:30.539Z,63.35
2023-04-11T08:28:54.541Z,64.74
2023-04-11T08:29:54.514Z,66.42
2023-04-11T08:30:54.559Z,65.80
2023-04-11T08:31:54.482Z,66.49
2023-04-11T08:32:54.497Z,65.67
2023-04-11T08:33:54.615Z,66.94
2023-04-11T08:34:54.473Z,66.31
2023-04-11T08:35:54.488Z,66.83
2023-04-11T08:36:54.426Z,68.48
2023-04-11T08:37:54.435Z,68.07
2023-04-11T08:38:54.406Z,69.10
2023-04-11T08:39:54.408Z,69.48
2023-04-11T08:40:54.382Z,69.48
2023-04-11T08:41:54.371Z,68.83
2023-04-11T08:42:54.378Z,68.86
2023-04-11T08:43:54.719Z,68.96
2023-04-11T08:44:54.356Z,68.24
2023-04-11T08:45:54.380Z,68.29
2023-04-11T08:46:54.320Z,67.80
2023-04-11T08:47:54.364Z,67.60
2023-04-11T08:48:54.306Z,68.29
2023-04-11T08:49:54.292Z,69.14
2023-04-11T08:50:54.275Z,70.34
2023-04-11T08:51:54.275Z,69.70
2023-04-11T08:52:54.252Z,70.00
2023-04-11T08:53:54.521Z,70.34
2023-04-11T08:54:54.245Z,68.90
2023-04-11T08:55:54.223Z,67.70
2023-04-11T08:56:54.209Z,69.45
2023-04-11T08:57:54.194Z,70.48
2023-04-11T08:58:54.197Z,70.23
2023-04-11T08:59:54.194Z,69.93
2023-04-11T09:00:54.481Z,69.96
2023-04-11T09:01:54.196Z,70.23
2023-04-11T09:02:54.194Z,70.13
2023-04-11T09:03:54.302Z,70.57
2023-04-11T09:04:54.136Z,71.58
2023-04-11T09:05:54.109Z,70.13
2023-04-11T09:06:54.121Z,70.86
2023-04-11T09:07:54.088Z,70.23
2023-04-11T09:08:54.076Z,69.62
2023-04-11T09:09:54.075Z,69.93
2023-04-11T09:10:54.065Z,70.20
2023-04-11T09:11:54.050Z,69.10
2023-04-11T09:12:54.044Z,69.31
2023-04-11T09:13:54.239Z,70.13
2023-04-11T09:14:54.102Z,70.75
2023-04-11T09:15:54.041Z,70.31
2023-04-11T09:16:54.044Z,71.06
2023-04-11T09:17:54.047Z,70.54
2023-04-11T09:18:54.006Z,71.75
2023-04-11T09:19:53.958Z,72.27
2023-04-11T09:20:53.950Z,71.85
2023-04-11T09:21:53.950Z,72.33
2023-04-11T09:22:53.930Z,71.41
2023-04-11T09:23:54.175Z,72.23
2023-04-11T09:24:53.935Z,72.13
2023-04-11T09:25:53.894Z,71.72
2023-04-11T09:26:53.896Z,71.51
2023-04-11T09:27:53.882Z,72.61
2023-04-11T09:28:54.266Z,71.58
2023-04-11T09:29:53.864Z,71.69
2023-04-11T09:30:53.903Z,71.78
2023-04-11T09:31:53.832Z,71.58
2023-04-11T09:32:53.905Z,71.82
2023-04-11T09:33:53.844Z,71.82
2023-04-11T09:34:53.810Z,71.75
2023-04-11T09:35:53.876Z,73.09
2023-04-11T09:36:53.804Z,73.50
2023-04-11T09:37:53.768Z,73.30
2023-04-11T09:38:53.761Z,74.84
2023-04-11T09:39:53.746Z,74.33
2023-04-11T09:40:53.736Z,74.46
2023-04-11T09:41:53.729Z,75.18
2023-04-11T09:42:53.729Z,77.97
2023-04-11T09:43:53.813Z,79.04
2023-04-11T09:44:53.699Z,80.28
2023-04-11T09:45:54.804Z,80.07
2023-04-11T09:46:53.784Z,81.41
2023-04-11T09:47:53.711Z,81.51
2023-04-11T09:48:53.689Z,82.75
2023-04-11T09:49:53.638Z,82.40
2023-04-11T09:50:53.633Z,82.65
2023-04-11T09:51:53.621Z,83.89
2023-04-11T09:52:53.605Z,84.20
2023-04-11T09:53:53.592Z,83.95
2023-04-11T09:54:53.605Z,83.37
2023-04-11T09:55:53.590Z,84.41
2023-04-11T09:56:53.561Z,86.51
2023-04-11T09:57:53.560Z,85.47
2023-04-11T09:58:53.607Z,85.78
2023-04-11T09:59:53.560Z,86.36
2023-04-11T10:00:53.551Z,86.68
2023-04-11T10:01:53.691Z,86.88
2023-04-11T10:02:53.795Z,85.06
2023-04-11T10:03:53.601Z,85.27
2023-04-11T10:04:53.591Z,86.61
2023-04-11T10:05:53.462Z,87.54
2023-04-11T10:06:53.472Z,87.29
2023-04-11T10:07:53.442Z,86.47
2023-04-11T10:08:53.480Z,83.31
2023-04-11T10:09:53.430Z,84.51
2023-04-11T10:10:53.409Z,86.78
2023-04-11T10:11:53.396Z,87.65
2023-04-11T10:12:53.403Z,89.09
2023-04-11T10:13:53.374Z,87.74
2023-04-11T10:14:53.378Z,88.20
2023-04-11T10:15:53.376Z,89.40
2023-04-11T10:16:53.342Z,89.05
2023-04-11T10:17:53.383Z,89.05
2023-04-11T10:18:53.336Z,88.95
2023-04-11T10:19:53.309Z,88.57
2023-04-11T10:20:53.331Z,89.29
2023-04-11T10:21:53.299Z,91.22
2023-04-11T10:22:53.287Z,91.22
2023-04-11T10:23:53.311Z,89.73
2023-04-11T10:24:53.273Z,89.62
2023-04-11T10:25:53.263Z,89.98
2023-04-11T10:26:53.240Z,90.39
2023-04-11T10:27:53.249Z,90.80
2023-04-11T10:28:53.217Z,90.91
2023-04-11T10:29:53.247Z,90.39
2023-04-11T10:30:53.214Z,90.02
2023-04-11T10:31:53.205Z,89.92
2023-04-11T10:32:53.211Z,90.95
2023-04-11T10:33:53.160Z,91.05
2023-04-11T10:34:53.157Z,91.42
2023-04-11T10:35:53.188Z,88.32
2023-04-11T10:36:53.152Z,89.50
2023-04-11T10:37:53.116Z,88.89
2023-04-11T10:38:53.107Z,89.09
2023-04-11T10:39:53.098Z,89.71
2023-04-11T10:40:53.096Z,89.81
2023-04-11T10:41:53.086Z,92.40
2023-04-11T10:42:53.090Z,91.50
2023-04-11T10:43:53.070Z,92.70
2023-04-11T10:44:53.042Z,91.40
2023-04-11T10:45:53.033Z,93.63
2023-04-11T10:46:53.046Z,94.97
2023-04-11T10:47:53.044Z,94.42
2023-04-11T10:48:53.018Z,93.90
2023-04-11T10:49:52.990Z,92.19
2023-04-11T10:50:52.976Z,92.64
2023-04-11T10:51:52.975Z,92.68
2023-04-11T10:52:53.001Z,92.68
2023-04-11T10:53:52.953Z,93.24
2023-04-11T10:54:52.960Z,94.85
2023-04-11T10:55:52.924Z,92.72
2023-04-11T10:56:52.940Z,94.69
2023-04-11T10:57:52.900Z,96.05
2023-04-11T10:58:52.892Z,94.75
2023-04-11T10:59:52.879Z,94.85
2023-04-11T11:00:52.906Z,93.76
2023-04-11T11:01:52.896Z,93.66
2023-04-11T11:02:52.961Z,93.87
2023-04-11T11:03:52.969Z,94.75
2023-04-11T11:04:53.071Z,95.53
2023-04-11T11:05:52.825Z,95.49
2023-04-11T11:06:56.987Z,94.87
2023-04-11T11:07:52.798Z,93.12
2023-04-11T11:08:52.809Z,93.63
2023-04-11T11:09:52.786Z,91.98
2023-04-11T11:10:52.757Z,92.40
2023-04-11T11:11:52.746Z,94.68
2023-04-11T11:12:52.762Z,91.83
2023-04-11T11:13:52.743Z,90.91
2023-04-11T11:14:52.715Z,92.00
2023-04-11T11:15:52.720Z,90.91
2023-04-11T11:16:52.735Z,89.01
2023-04-11T11:17:52.807Z,90.20
2023-04-11T11:18:52.711Z,89.38
2023-04-11T11:19:52.658Z,90.78
2023-04-11T11:20:52.647Z,89.58
2023-04-11T11:21:52.642Z,89.65
2023-04-11T11:22:52.627Z,88.99
2023-04-11T11:23:52.614Z,87.90
2023-04-11T11:24:52.645Z,89.05
2023-04-11T11:25:52.593Z,88.49
2023-04-11T11:26:52.582Z,85.41
2023-04-11T11:27:52.571Z,85.38
2023-04-11T11:28:52.563Z,89.81
2023-04-11T11:29:53.114Z,90.90
2023-04-11T11:30:54.848Z,88.64
2023-04-11T11:31:52.581Z,89.01
2023-04-11T11:32:52.555Z,89.89
2023-04-11T11:33:53.984Z,87.05
2023-04-11T11:34:52.495Z,86.95
2023-04-11T11:35:52.484Z,88.18
2023-04-11T11:36:52.635Z,83.70
2023-04-11T11:37:52.461Z,87.51
2023-04-11T11:38:52.451Z,86.58
2023-04-11T11:39:52.452Z,86.31
2023-04-11T11:40:52.500Z,86.31
2023-04-11T11:41:52.452Z,86.61
2023-04-11T11:42:52.494Z,86.79
2023-04-11T11:43:52.424Z,87.40
2023-04-11T11:44:52.388Z,88.12
2023-04-11T11:45:52.441Z,88.84
2023-04-11T11:46:52.392Z,88.89
2023-04-11T11:47:52.407Z,89.05
2023-04-11T11:48:52.397Z,89.77
2023-04-11T11:49:52.381Z,91.06
2023-04-11T11:50:52.351Z,91.23
2023-04-11T11:51:52.335Z,90.06
2023-04-11T11:52:52.324Z,90.59
2023-04-11T11:53:52.336Z,90.08
2023-04-11T11:54:52.324Z,88.39
2023-04-11T11:55:52.289Z,88.84
2023-04-11T11:56:52.318Z,86.48
2023-04-11T11:57:52.264Z,88.23
2023-04-11T11:58:52.273Z,88.74
2023-04-11T11:59:52.278Z,87.05
2023-04-11T12:00:52.289Z,85.93
2023-04-11T12:01:52.259Z,86.58
2023-04-11T12:02:52.404Z,87.13
2023-04-11T12:03:52.367Z,88.64
2023-04-11T12:04:52.318Z,84.84
2023-04-11T12:05:52.210Z,85.06
2023-04-11T12:06:52.181Z,88.20
2023-04-11T12:07:52.181Z,88.92
2023-04-11T12:08:52.163Z,87.79
2023-04-11T12:09:52.135Z,86.15
2023-04-11T12:10:52.149Z,87.22
2023-04-11T12:11:52.126Z,85.26
2023-04-11T12:12:53.264Z,83.89
2023-04-11T12:13:52.113Z,87.04
2023-04-11T12:14:52.093Z,86.11
2023-04-11T12:15:52.148Z,85.60
2023-04-11T12:16:52.069Z,85.78
2023-04-11T12:17:52.159Z,86.40
2023-04-11T12:18:52.052Z,86.08
2023-04-11T12:19:52.037Z,88.51
2023-04-11T12:20:52.032Z,86.05
2023-04-11T12:21:52.001Z,84.71
2023-04-11T12:22:53.734Z,83.89
2023-04-11T12:23:52.007Z,84.85
2023-04-11T12:24:52.012Z,84.89
2023-04-11T12:25:51.986Z,84.69
2023-04-11T12:27:06.462Z,86.33
2023-04-11T12:27:52.944Z,85.34
2023-04-11T12:28:51.946Z,86.27
2023-04-11T12:29:51.926Z,87.24
2023-04-11T12:30:52.037Z,88.92
2023-04-11T12:31:52.000Z,89.19
2023-04-11T12:32:52.008Z,90.28
2023-04-11T12:33:51.880Z,91.21
2023-04-11T12:34:51.872Z,90.90
2023-04-11T12:35:51.853Z,91.17
2023-04-11T12:36:51.857Z,91.17
2023-04-11T12:37:51.845Z,91.06
2023-04-11T12:38:51.835Z,91.21
2023-04-11T12:39:51.811Z,90.90
2023-04-11T12:41:00.337Z,92.34
2023-04-11T12:41:52.791Z,93.06
2023-04-11T12:42:56.322Z,91.36
2023-04-11T12:43:52.777Z,90.33
2023-04-11T12:44:51.887Z,93.31
2023-04-11T12:45:51.741Z,93.21
2023-04-11T12:46:51.766Z,92.90
2023-04-11T12:47:51.815Z,92.29
2023-04-11T12:48:51.737Z,90.12
2023-04-11T12:49:51.715Z,90.26
2023-04-11T12:50:51.703Z,89.81
2023-04-11T12:51:51.679Z,89.91
2023-04-11T12:52:51.683Z,90.57
2023-04-11T12:53:51.662Z,92.18
2023-04-11T12:54:51.678Z,91.77
2023-04-11T12:55:51.739Z,90.67
2023-04-11T12:56:51.641Z,90.94
2023-04-11T12:57:51.622Z,91.09
2023-04-11T12:58:51.609Z,90.67
2023-04-11T12:59:51.591Z,90.67
2023-04-11T13:00:51.841Z,91.19
2023-04-11T13:01:51.669Z,91.30
2023-04-11T13:02:51.786Z,89.91
2023-04-11T13:03:51.651Z,89.85
2023-04-11T13:04:51.623Z,90.78
2023-04-11T13:05:51.508Z,90.06
2023-04-11T13:06:51.566Z,90.57
2023-04-11T13:07:51.507Z,89.54
2023-04-11T13:08:51.530Z,89.38
2023-04-11T13:09:51.497Z,89.85
2023-04-11T13:10:51.797Z,90.06
2023-04-11T13:11:51.461Z,89.13
2023-04-11T13:12:51.470Z,88.92
2023-04-11T13:13:51.439Z,88.92
2023-04-11T13:14:51.442Z,89.17
2023-04-11T13:15:51.429Z,89.38
2023-04-11T13:16:51.473Z,88.82
2023-04-11T13:17:51.417Z,89.29
2023-04-11T13:18:51.398Z,89.46
2023-04-11T13:19:51.378Z,88.43
2023-04-11T13:20:51.353Z,88.84
2023-04-11T13:21:51.348Z,87.13
2023-04-11T13:22:51.371Z,87.51
2023-04-11T13:23:51.357Z,87.40
2023-04-11T13:24:51.343Z,88.95
2023-04-11T13:25:51.357Z,89.15
2023-04-11T13:26:51.348Z,86.41
2023-04-11T13:27:51.317Z,86.88
2023-04-11T13:28:51.296Z,86.79
2023-04-11T13:29:51.284Z,88.53
2023-04-11T13:30:51.289Z,88.33
2023-04-11T13:31:51.316Z,87.65
2023-04-11T13:32:51.277Z,88.06
2023-04-11T13:33:51.224Z,89.09
2023-04-11T13:34:51.218Z,88.89
2023-04-11T13:35:51.224Z,89.67
2023-04-11T13:36:51.297Z,87.85
2023-04-11T13:37:51.189Z,88.68
2023-04-11T13:38:51.201Z,88.68
2023-04-11T13:39:51.170Z,88.99
2023-04-11T13:40:51.146Z,86.97
2023-04-11T13:41:51.147Z,88.51
2023-04-11T13:42:51.142Z,88.41
2023-04-11T13:43:51.119Z,87.38
2023-04-11T13:44:51.117Z,87.32
2023-04-11T13:45:51.172Z,87.17
2023-04-11T13:46:51.082Z,89.09
2023-04-11T13:47:51.184Z,90.01
2023-04-11T13:48:51.111Z,89.91
2023-04-11T13:49:51.068Z,89.71
2023-04-11T13:50:51.074Z,88.99
2023-04-11T13:51:51.028Z,89.91